Time;durP1;ratioP1;P1;durP2;ratioP2;P2;SDS_P1;SDS_P2;PMS_P1;PMS_P2;Temp;Humidity;BMP_temperature;BMP_pressure;BME280_temperature;BME280_humidity;BME280_pressure;Samples;Min_cycle;Max_cycle;Signal;HPM_P1;HPM_P2
2022/06/19 00:00:15;;;;;;;7.50;2.20;;;;;;;25.05;39.02;101056.50;5125459;28;20502;-59
2022/06/19 00:02:43;;;;;;;7.20;2.13;;;;;;;25.03;39.23;101051.28;5125150;28;20030;-59
2022/06/19 00:05:09;;;;;;;4.60;1.60;;;;;;;25.02;39.00;101046.91;5107799;28;20032;-60
2022/06/19 00:07:34;;;;;;;6.63;2.03;;;;;;;25.01;39.07;101042.47;5107521;28;20031;-60
2022/06/19 00:09:59;;;;;;;6.35;2.03;;;;;;;24.99;38.93;101041.03;5122813;28;20101;-59
2022/06/19 00:12:25;;;;;;;8.35;2.00;;;;;;;25.00;39.06;101048.13;5104538;28;20099;-59
2022/06/19 00:14:50;;;;;;;7.50;3.03;;;;;;;24.99;38.94;101041.88;5104521;28;20032;-59
2022/06/19 00:17:16;;;;;;;5.07;1.83;;;;;;;24.99;39.00;101036.41;5105117;28;20028;-59
2022/06/19 00:19:41;;;;;;;5.72;2.00;;;;;;;24.97;39.02;101033.06;5105074;28;20107;-59
2022/06/19 00:22:07;;;;;;;6.18;2.13;;;;;;;24.97;39.12;101030.34;5104721;28;20032;-58
2022/06/19 00:24:32;;;;;;;6.03;1.70;;;;;;;24.87;38.88;101019.84;5105972;28;20016;-59
2022/06/19 00:26:58;;;;;;;7.53;2.20;;;;;;;24.96;39.03;101036.00;5104891;28;20091;-59
2022/06/19 00:29:23;;;;;;;4.72;2.00;;;;;;;24.94;38.89;101023.44;5104374;28;20362;-59
2022/06/19 00:31:48;;;;;;;8.05;1.92;;;;;;;24.93;38.82;101010.88;5104709;28;20027;-59
2022/06/19 00:34:14;;;;;;;5.75;2.17;;;;;;;24.93;38.74;101012.75;5104732;28;20059;-59
2022/06/19 00:36:39;;;;;;;6.18;1.85;;;;;;;24.84;38.87;101000.38;5086495;28;20042;-59
2022/06/19 00:39:04;;;;;;;6.03;1.75;;;;;;;24.90;38.78;101024.06;5105057;28;20115;-59
2022/06/19 00:41:35;;;;;;;4.95;1.70;;;;;;;24.89;38.84;101034.09;5112838;28;20035;-59
2022/06/19 00:44:06;;;;;;;7.70;2.70;;;;;;;24.88;38.74;101024.25;5104232;28;20044;-59
2022/06/19 00:46:45;;;;;;;7.45;2.70;;;;;;;24.88;38.71;101018.81;5104938;28;20050;-59
2022/06/19 00:49:13;;;;;;;9.63;2.50;;;;;;;24.86;38.67;101028.22;5089985;28;20029;-59
2022/06/19 00:51:38;;;;;;;6.28;1.65;;;;;;;24.84;38.56;101033.84;5090286;28;20043;-58
2022/06/19 00:54:06;;;;;;;7.80;2.10;;;;;;;24.84;38.64;101038.47;5090293;28;20020;-59
2022/06/19 00:56:31;;;;;;;6.53;2.20;;;;;;;24.82;38.69;101038.69;5090144;28;20094;-58
2022/06/19 00:58:57;;;;;;;5.35;1.88;;;;;;;24.80;38.85;101040.75;5108065;28;20074;-59
2022/06/19 01:01:24;;;;;;;5.45;1.67;;;;;;;24.81;38.67;101038.91;5110630;28;20031;-59
2022/06/19 01:04:11;;;;;;;6.70;1.70;;;;;;;24.80;38.37;101015.44;5120458;28;20035;-59
2022/06/19 01:06:36;;;;;;;5.70;1.58;;;;;;;24.77;38.48;101000.41;5115022;28;20066;-58
2022/06/19 01:09:03;;;;;;;7.85;2.30;;;;;;;24.76;38.06;100984.25;5128582;28;20407;-59
2022/06/19 01:11:31;;;;;;;6.72;2.00;;;;;;;24.76;38.25;100990.53;5115968;28;20080;-58
2022/06/19 01:13:57;;;;;;;8.25;2.35;;;;;;;24.76;38.32;100984.25;5107654;28;20024;-58
2022/06/19 01:16:22;;;;;;;6.75;1.98;;;;;;;24.75;38.38;100977.16;5089860;28;20444;-58
2022/06/19 01:18:48;;;;;;;10.65;1.85;;;;;;;24.69;38.27;100957.91;5109873;28;20028;-58
2022/06/19 01:21:24;;;;;;;6.82;1.83;;;;;;;24.75;38.13;100977.16;5128250;28;20019;-58
2022/06/19 01:24:01;;;;;;;5.65;1.65;;;;;;;24.74;38.17;100995.34;5127489;28;20023;-59
2022/06/19 01:26:27;;;;;;;8.13;2.28;;;;;;;24.73;37.85;101034.47;5107795;28;20036;-58
2022/06/19 01:28:56;;;;;;;4.88;1.80;;;;;;;24.63;37.89;101067.47;5109297;28;20031;-59
2022/06/19 01:31:51;;;;;;;6.50;2.15;;;;;;;24.71;37.87;101123.56;5128021;28;20038;-58
2022/06/19 01:34:39;;;;;;;5.10;2.00;;;;;;;24.68;37.63;101132.97;5093060;28;20027;-58
2022/06/19 01:37:11;;;;;;;5.68;1.75;;;;;;;24.66;37.56;101134.19;5097689;28;20024;-58
2022/06/19 01:39:43;;;;;;;4.28;1.63;;;;;;;24.66;37.57;101139.63;5089684;28;20027;-58
2022/06/19 01:42:08;;;;;;;6.88;1.88;;;;;;;24.58;37.61;101101.75;5088842;28;20023;-58
2022/06/19 01:44:35;;;;;;;4.75;1.75;;;;;;;24.62;37.50;101094.84;5065352;28;20041;-59
2022/06/19 01:47:00;;;;;;;6.20;1.98;;;;;;;24.62;37.54;101071.22;5066056;28;20055;-58
2022/06/19 01:49:29;;;;;;;7.18;2.42;;;;;;;24.59;37.51;101051.75;5067237;28;20029;-59
2022/06/19 01:51:54;;;;;;;7.22;2.15;;;;;;;24.60;37.17;101051.56;5067060;28;20028;-58
2022/06/19 01:54:22;;;;;;;6.28;1.65;;;;;;;24.61;37.62;101063.28;5067265;28;20041;-58
2022/06/19 01:56:49;;;;;;;7.07;2.13;;;;;;;24.58;37.41;101067.22;5048860;28;20025;-59
2022/06/19 01:59:15;;;;;;;5.20;1.50;;;;;;;24.58;37.51;101060.97;5066129;28;20029;-58
2022/06/19 02:01:41;;;;;;;12.18;2.33;;;;;;;24.57;37.58;101056.56;5066957;28;20477;-58
2022/06/19 02:04:06;;;;;;;5.38;1.80;;;;;;;24.53;37.65;101039.00;5065703;28;20032;-59
2022/06/19 02:06:37;;;;;;;4.88;1.70;;;;;;;24.55;37.53;101018.72;5065513;28;20025;-58
2022/06/19 02:09:03;;;;;;;5.30;1.52;;;;;;;24.55;37.63;101026.03;5071540;28;20044;-58
2022/06/19 02:11:30;;;;;;;8.13;1.75;;;;;;;24.53;37.59;101037.09;5071013;28;20059;-58
2022/06/19 02:13:58;;;;;;;5.38;1.58;;;;;;;24.50;37.77;101044.81;5066000;28;20088;-58
2022/06/19 02:16:23;;;;;;;5.77;1.87;;;;;;;24.52;37.76;101069.94;5066790;28;20076;-58
2022/06/19 02:18:51;;;;;;;6.68;2.35;;;;;;;24.50;37.69;101075.56;5068608;28;20039;-58
2022/06/19 02:21:32;;;;;;;4.88;1.73;;;;;;;24.49;37.75;101075.78;5086410;28;20067;-59
2022/06/19 02:23:57;;;;;;;5.78;1.80;;;;;;;24.48;37.75;101082.25;5085250;28;20042;-59
2022/06/19 02:26:22;;;;;;;5.85;1.55;;;;;;;24.46;37.92;101079.72;5086423;28;20103;-59
2022/06/19 02:28:49;;;;;;;7.95;2.20;;;;;;;24.44;37.85;101074.50;5086132;28;20032;-60
2022/06/19 02:31:16;;;;;;;9.05;2.25;;;;;;;24.46;38.03;101081.59;5085188;28;20028;-59
2022/06/19 02:33:45;;;;;;;7.40;1.90;;;;;;;24.44;37.96;101081.81;5086365;28;20017;-59
2022/06/19 02:36:33;;;;;;;6.68;1.70;;;;;;;24.43;38.08;101070.09;5085112;28;20093;-59
2022/06/19 02:39:08;;;;;;;5.32;1.88;;;;;;;24.42;38.12;101067.56;5086542;28;20296;-59
2022/06/19 02:41:35;;;;;;;6.53;2.17;;;;;;;24.41;38.17;101080.31;5084582;28;20092;-59
2022/06/19 02:44:00;;;;;;;6.85;1.88;;;;;;;24.40;38.03;101086.81;5067339;28;20048;-59
2022/06/19 02:46:25;;;;;;;5.05;1.67;;;;;;;24.40;38.11;101073.22;5086053;28;20043;-60
2022/06/19 02:48:51;;;;;;;9.23;2.00;;;;;;;24.38;37.82;101069.88;5080836;28;20085;-59
2022/06/19 02:51:16;;;;;;;4.38;1.70;;;;;;;24.40;38.13;101080.53;5065776;28;20036;-60
2022/06/19 02:53:41;;;;;;;7.70;2.55;;;;;;;24.40;37.97;101070.50;5065778;28;20025;-60
2022/06/19 02:56:06;;;;;;;6.22;1.60;;;;;;;24.40;37.93;101072.38;5065962;28;20036;-58
2022/06/19 02:58:32;;;;;;;4.68;1.67;;;;;;;24.39;37.85;101063.41;5065384;28;20029;-59
2022/06/19 03:00:57;;;;;;;7.18;1.70;;;;;;;24.38;37.71;101064.44;5065822;28;20098;-59
2022/06/19 03:03:35;;;;;;;10.88;2.42;;;;;;;24.38;37.71;101052.72;5065559;28;20036;-60
2022/06/19 03:06:01;;;;;;;3.40;1.48;;;;;;;24.34;37.75;101046.84;5065812;28;20021;-60
2022/06/19 03:08:26;;;;;;;4.88;2.05;;;;;;;24.35;37.47;101075.69;5065735;28;20025;-60
2022/06/19 03:10:51;;;;;;;7.90;2.08;;;;;;;24.35;37.21;101116.44;5073931;28;20028;-60
2022/06/19 03:13:18;;;;;;;4.38;1.50;;;;;;;24.08;37.42;101122.72;5084680;28;20534;-60
2022/06/19 03:15:44;;;;;;;5.72;1.70;;;;;;;24.32;37.35;101157.59;5085687;28;20482;-59
2022/06/19 03:18:09;;;;;;;4.47;1.77;;;;;;;24.31;37.30;101134.19;5084267;28;20043;-58
2022/06/19 03:20:34;;;;;;;6.82;1.85;;;;;;;24.29;37.43;101103.63;5047559;28;20017;-58
2022/06/19 03:23:00;;;;;;;5.03;1.63;;;;;;;24.29;37.19;101075.63;5065470;28;20505;-58
2022/06/19 03:25:25;;;;;;;4.80;1.40;;;;;;;24.27;37.36;101054.09;5065358;28;20033;-58
2022/06/19 03:27:51;;;;;;;4.25;1.27;;;;;;;24.28;37.26;101044.06;5065345;28;20017;-58
2022/06/19 03:30:19;;;;;;;5.60;1.20;;;;;;;24.26;37.17;101044.28;5065312;28;20082;-59
2022/06/19 03:32:44;;;;;;;4.07;1.33;;;;;;;24.28;37.25;101101.97;5065171;28;20032;-59
2022/06/19 03:35:10;;;;;;;4.55;1.40;;;;;;;24.27;37.20;101203.53;5065505;28;20029;-59
2022/06/19 03:37:35;;;;;;;5.95;1.65;;;;;;;24.26;37.38;101272.53;5065044;28;20029;-58
2022/06/19 03:40:01;;;;;;;5.00;1.27;;;;;;;24.25;37.17;101210.19;5065495;28;20072;-59
2022/06/19 03:42:26;;;;;;;4.18;1.40;;;;;;;24.16;37.25;101164.16;5069093;28;20029;-58
2022/06/19 03:44:53;;;;;;;5.40;1.50;;;;;;;24.22;37.21;101153.56;5087346;28;20128;-59
2022/06/19 03:47:21;;;;;;;6.97;1.83;;;;;;;24.20;37.27;101116.53;5105578;28;20036;-59
2022/06/19 03:49:46;;;;;;;7.15;2.15;;;;;;;24.18;37.54;101115.91;5105676;28;20024;-59
2022/06/19 03:52:11;;;;;;;8.27;1.60;;;;;;;24.16;37.49;101114.41;5105160;28;20036;-59
2022/06/19 03:54:37;;;;;;;5.93;1.42;;;;;;;24.16;37.32;101108.97;5087124;28;20484;-59
2022/06/19 03:57:03;;;;;;;4.40;1.35;;;;;;;24.15;37.57;101097.28;5105042;28;20084;-59
2022/06/19 03:59:28;;;;;;;5.75;2.53;;;;;;;24.14;37.68;101082.03;5105091;28;20024;-59
2022/06/19 04:01:54;;;;;;;5.32;1.60;;;;;;;24.15;37.26;101074.72;5105301;28;20504;-59
2022/06/19 04:04:19;;;;;;;6.90;1.50;;;;;;;24.15;37.86;101089.13;5087120;28;20126;-59
2022/06/19 04:06:44;;;;;;;6.32;1.65;;;;;;;24.15;38.20;101113.59;5105116;28;20028;-59
2022/06/19 04:09:15;;;;;;;6.60;1.95;;;;;;;24.15;37.90;101112.75;5105287;28;20488;-59
2022/06/19 04:11:41;;;;;;;4.90;1.33;;;;;;;24.14;37.90;101089.34;5120802;28;20115;-59
2022/06/19 04:14:07;;;;;;;5.03;1.70;;;;;;;24.12;37.81;100972.72;5125113;28;20502;-59
2022/06/19 04:16:33;;;;;;;6.47;1.75;;;;;;;24.12;37.82;100926.53;5107517;28;21982;-59
2022/06/19 04:19:01;;;;;;;4.72;1.65;;;;;;;24.12;37.87;100907.53;5124809;28;20031;-58
2022/06/19 04:21:29;;;;;;;5.60;1.75;;;;;;;24.12;37.63;100901.25;5126363;28;20112;-59
2022/06/19 04:23:56;;;;;;;5.75;2.22;;;;;;;24.12;37.65;100907.53;5129645;28;20045;-59
2022/06/19 04:26:23;;;;;;;5.65;1.50;;;;;;;24.12;37.44;100904.81;5127436;28;20065;-59
2022/06/19 04:28:48;;;;;;;5.88;1.60;;;;;;;24.10;37.27;100887.88;5129128;28;20020;-58
2022/06/19 04:31:14;;;;;;;6.72;1.50;;;;;;;24.11;37.14;100873.25;5129436;28;20031;-58
2022/06/19 04:33:40;;;;;;;7.20;1.65;;;;;;;24.12;37.04;100869.50;5111152;28;20034;-58
2022/06/19 04:36:11;;;;;;;5.55;1.25;;;;;;;24.12;36.90;100877.63;5129305;28;20026;-59
2022/06/19 04:38:37;;;;;;;5.82;1.55;;;;;;;24.12;37.01;100884.94;5129372;28;20031;-59
2022/06/19 04:41:02;;;;;;;5.65;1.50;;;;;;;24.09;36.85;100891.66;5110691;28;20024;-58
2022/06/19 04:43:28;;;;;;;5.00;1.20;;;;;;;24.09;36.57;100902.50;5128301;28;20089;-59
2022/06/19 04:46:01;;;;;;;4.88;1.90;;;;;;;24.11;36.39;100894.16;5129357;28;20031;-59
2022/06/19 04:48:26;;;;;;;4.07;1.67;;;;;;;23.94;36.42;100878.22;5105190;28;20020;-59
2022/06/19 04:50:53;;;;;;;3.58;1.05;;;;;;;24.10;36.32;100903.34;5108749;28;20034;-59
2022/06/19 04:53:18;;;;;;;3.88;1.13;;;;;;;24.10;36.35;100897.91;5108468;28;20042;-59
2022/06/19 04:55:44;;;;;;;5.13;1.67;;;;;;;24.09;36.09;100869.91;5108488;28;20066;-59
2022/06/19 04:58:09;;;;;;;4.63;1.40;;;;;;;24.09;35.85;100814.75;5089919;28;20035;-59
2022/06/19 05:00:34;;;;;;;6.05;1.50;;;;;;;24.06;36.15;100739.13;5108609;28;20027;-59
2022/06/19 05:02:59;;;;;;;3.85;1.30;;;;;;;24.07;35.94;100717.16;5108061;28;20028;-59
2022/06/19 05:05:25;;;;;;;5.40;1.90;;;;;;;24.05;35.67;100686.69;5107811;28;20024;-59
2022/06/19 05:07:50;;;;;;;5.15;1.35;;;;;;;24.06;35.79;100734.50;5106435;28;20046;-59
2022/06/19 05:10:16;;;;;;;3.83;0.82;;;;;;;24.05;35.67;100699.41;5112203;28;20031;-59
2022/06/19 05:12:41;;;;;;;3.78;1.10;;;;;;;24.05;35.38;100710.28;5128072;28;20027;-59
2022/06/19 05:15:07;;;;;;;6.43;1.83;;;;;;;24.01;35.21;100709.03;5128175;28;20034;-59
2022/06/19 05:17:33;;;;;;;4.43;1.40;;;;;;;23.98;35.29;100698.56;5127863;28;20035;-59
2022/06/19 05:19:58;;;;;;;4.28;1.60;;;;;;;24.03;34.83;100713.19;5108284;28;20035;-59
2022/06/19 05:22:24;;;;;;;3.78;1.02;;;;;;;24.04;34.90;100700.44;5107641;28;20115;-59
2022/06/19 05:24:49;;;;;;;3.63;1.27;;;;;;;24.02;35.04;100700.66;5107877;28;20028;-59
2022/06/19 05:27:15;;;;;;;3.55;1.13;;;;;;;24.03;34.58;100713.19;5127229;28;20079;-59
2022/06/19 05:29:40;;;;;;;4.13;1.10;;;;;;;24.03;34.49;100743.06;5127798;28;20027;-60
2022/06/19 05:32:06;;;;;;;7.45;1.58;;;;;;;24.03;34.40;100821.00;5127995;28;20034;-61
2022/06/19 05:34:33;;;;;;;5.43;1.38;;;;;;;24.04;34.31;100882.41;5127527;28;20024;-59
2022/06/19 05:36:58;;;;;;;3.70;0.90;;;;;;;24.04;34.17;100924.00;5127719;28;20093;-59
2022/06/19 05:39:23;;;;;;;4.30;1.20;;;;;;;23.97;34.27;100944.03;5128171;28;20418;-59
2022/06/19 05:41:49;;;;;;;3.83;1.60;;;;;;;24.04;34.53;100986.47;5127527;28;20027;-59
2022/06/19 05:44:14;;;;;;;4.70;1.38;;;;;;;23.99;34.32;100983.50;5127367;28;20085;-59
2022/06/19 05:46:40;;;;;;;4.07;1.20;;;;;;;24.05;34.51;100998.19;5128161;28;20110;-59
2022/06/19 05:49:05;;;;;;;6.57;1.15;;;;;;;24.04;34.37;101001.91;5114721;28;20088;-59
2022/06/19 05:51:30;;;;;;;4.40;1.15;;;;;;;24.04;34.27;101001.91;5089130;28;20115;-59
2022/06/19 05:53:57;;;;;;;2.88;1.02;;;;;;;24.03;34.31;100986.66;5107298;28;20024;-60
2022/06/19 05:56:23;;;;;;;2.78;1.08;;;;;;;24.02;34.50;100994.00;5107256;28;20023;-59
2022/06/19 05:58:49;;;;;;;3.42;1.20;;;;;;;24.03;34.61;100997.53;5106630;28;20039;-59
2022/06/19 06:01:16;;;;;;;2.85;0.82;;;;;;;24.03;34.85;100983.97;5107365;28;20027;-59
2022/06/19 06:03:44;;;;;;;3.45;0.80;;;;;;;24.04;34.87;100974.75;5106903;28;20058;-59
2022/06/19 06:06:21;;;;;;;3.22;1.33;;;;;;;24.03;35.03;100982.06;5107114;28;20050;-59
2022/06/19 06:08:47;;;;;;;5.07;1.42;;;;;;;24.02;35.15;100994.00;5107055;28;20094;-58
2022/06/19 06:11:13;;;;;;;6.07;1.48;;;;;;;24.02;35.19;100995.88;5118961;28;20459;-58
2022/06/19 06:13:38;;;;;;;4.90;1.10;;;;;;;23.96;35.20;100973.06;5126435;28;20070;-59
2022/06/19 06:16:04;;;;;;;3.78;1.20;;;;;;;24.02;35.37;100991.28;5127402;28;20084;-59
2022/06/19 06:18:29;;;;;;;2.58;1.20;;;;;;;24.03;35.61;100997.53;5116973;28;20053;-59
2022/06/19 06:21:03;;;;;;;5.00;1.08;;;;;;;24.02;35.44;100998.59;5106920;28;20035;-59
2022/06/19 06:23:29;;;;;;;5.93;1.10;;;;;;;24.02;35.64;101009.44;5106286;28;20028;-59
2022/06/19 06:26:15;;;;;;;5.13;1.40;;;;;;;24.02;35.92;101031.19;5106716;28;20036;-59
2022/06/19 06:28:44;;;;;;;4.80;1.70;;;;;;;24.01;36.06;101013.22;5106393;28;20031;-59
2022/06/19 06:31:09;;;;;;;3.75;0.85;;;;;;;23.99;35.99;100994.38;5106836;28;20027;-59
2022/06/19 06:33:34;;;;;;;4.10;1.90;;;;;;;23.95;36.26;100996.66;5106093;28;20027;-59
2022/06/19 06:36:00;;;;;;;2.88;1.10;;;;;;;23.95;36.26;100999.38;5106536;28;20081;-58
2022/06/19 06:38:26;;;;;;;5.25;1.42;;;;;;;23.95;36.51;101012.09;5106320;28;20028;-59
2022/06/19 06:40:51;;;;;;;4.90;1.38;;;;;;;23.92;36.66;101012.53;5106379;28;20031;-59
2022/06/19 06:43:17;;;;;;;7.68;1.67;;;;;;;23.92;36.75;101028.81;5105189;28;20103;-59
2022/06/19 06:45:43;;;;;;;5.50;1.63;;;;;;;23.90;37.00;101060.75;5105337;28;20024;-59
2022/06/19 06:48:08;;;;;;;2.70;1.38;;;;;;;23.91;37.18;101054.28;5106192;28;20027;-59
2022/06/19 06:50:34;;;;;;;6.35;1.38;;;;;;;23.89;37.29;101016.47;5106278;28;20496;-59
2022/06/19 06:52:59;;;;;;;3.95;1.52;;;;;;;23.86;37.40;100994.31;5105855;28;20028;-59
2022/06/19 06:55:24;;;;;;;6.35;1.45;;;;;;;23.88;37.47;101024.81;5106233;28;20136;-59
2022/06/19 06:57:50;;;;;;;6.07;1.60;;;;;;;23.87;37.61;101113.59;5105858;28;20027;-59
2022/06/19 07:00:19;;;;;;;5.05;1.40;;;;;;;23.86;37.90;101154.50;5105311;28;20334;-59
2022/06/19 07:02:44;;;;;;;5.28;1.30;;;;;;;23.85;37.97;101182.72;5105724;28;20020;-60
2022/06/19 07:05:10;;;;;;;4.72;1.40;;;;;;;23.87;38.05;101205.06;5105917;28;20066;-60
2022/06/19 07:07:35;;;;;;;7.45;1.52;;;;;;;23.88;38.09;101231.22;5105788;28;20027;-59
2022/06/19 07:10:00;;;;;;;6.38;1.55;;;;;;;23.87;38.38;101203.22;5107791;28;20032;-59
2022/06/19 07:12:26;;;;;;;4.22;1.15;;;;;;;23.86;38.42;101160.78;5125711;28;20020;-58
2022/06/19 07:14:51;;;;;;;4.38;1.48;;;;;;;23.87;38.74;101129.91;5125734;28;20023;-59
2022/06/19 07:17:16;;;;;;;4.80;1.52;;;;;;;23.85;38.71;101095.81;5125403;28;20032;-59
2022/06/19 07:19:41;;;;;;;4.43;1.40;;;;;;;23.87;38.89;101115.44;5125970;28;20738;-59
2022/06/19 07:22:11;;;;;;;4.57;1.48;;;;;;;23.85;38.95;101118.38;5126105;28;20028;-59
2022/06/19 07:24:36;;;;;;;5.57;1.83;;;;;;;23.86;38.92;101158.06;5125836;28;20079;-60
2022/06/19 07:27:01;;;;;;;4.22;1.20;;;;;;;23.85;39.28;101199.84;5125996;28;20027;-60
2022/06/19 07:29:27;;;;;;;5.90;1.48;;;;;;;23.83;39.31;101226.34;5125418;28;20027;-59
2022/06/19 07:31:53;;;;;;;5.82;1.38;;;;;;;23.83;39.19;101249.94;5125958;28;20117;-60
2022/06/19 07:34:18;;;;;;;6.85;1.52;;;;;;;23.83;39.21;101241.78;5125806;28;20035;-60
2022/06/19 07:36:43;;;;;;;5.68;1.55;;;;;;;23.81;39.26;101231.13;5125758;28;20041;-60
2022/06/19 07:39:09;;;;;;;5.28;1.70;;;;;;;23.81;39.32;101227.56;5107509;28;20031;-60
2022/06/19 07:41:34;;;;;;;5.53;1.25;;;;;;;23.81;39.38;101198.53;5125262;28;20095;-59
2022/06/19 07:43:59;;;;;;;3.92;1.25;;;;;;;23.80;39.50;101202.31;5124803;28;20096;-60
2022/06/19 07:46:25;;;;;;;4.35;1.67;;;;;;;23.79;39.35;101206.06;5125787;28;20027;-60
2022/06/19 07:51:34;;;;;;;5.00;1.40;;;;;;;23.73;39.49;101174.22;5105564;28;20081;-60
2022/06/19 07:54:00;;;;;;;5.85;1.90;;;;;;;23.73;39.86;101189.69;5104876;28;20020;-59
2022/06/19 07:56:26;;;;;;;8.68;1.55;;;;;;;23.76;39.71;101209.16;5106001;28;20468;-59
2022/06/19 07:58:51;;;;;;;4.00;1.17;;;;;;;23.76;39.79;101222.72;5109139;28;20027;-59
2022/06/19 08:01:17;;;;;;;5.05;1.35;;;;;;;23.75;40.11;101220.22;5109407;28;20031;-59
2022/06/19 08:03:42;;;;;;;3.88;1.33;;;;;;;23.74;40.10;101253.81;5109226;28;20028;-59
2022/06/19 08:06:07;;;;;;;5.50;1.52;;;;;;;23.58;40.15;101241.31;5109510;28;20454;-57
2022/06/19 08:08:32;;;;;;;6.18;1.30;;;;;;;23.72;40.12;101283.03;5109259;28;20043;-59
2022/06/19 08:10:58;;;;;;;4.25;1.23;;;;;;;23.71;40.33;101293.06;5119357;28;20156;-59
2022/06/19 08:13:26;;;;;;;3.42;1.63;;;;;;;23.69;39.99;101295.94;5128809;28;20027;-59
2022/06/19 08:15:54;;;;;;;5.73;1.80;;;;;;;23.67;40.23;101251.88;5129733;28;20030;-59
2022/06/19 08:18:20;;;;;;;5.03;1.20;;;;;;;23.68;40.30;101193.00;5124340;28;20342;-58
2022/06/19 08:20:46;;;;;;;5.90;1.48;;;;;;;23.68;40.54;101233.72;5090998;28;20422;-59
2022/06/19 08:23:13;;;;;;;6.22;1.67;;;;;;;23.65;40.40;101269.38;5108996;28;20078;-59
2022/06/19 08:25:38;;;;;;;5.43;1.42;;;;;;;23.67;40.87;101303.44;5108981;28;20024;-59
2022/06/19 08:28:03;;;;;;;5.85;1.70;;;;;;;23.65;40.63;101329.94;5108820;28;20446;-59
2022/06/19 08:30:32;;;;;;;6.03;1.63;;;;;;;23.66;40.78;101341.63;5108487;28;20023;-59
2022/06/19 08:32:57;;;;;;;;;;;;;;;23.64;40.63;101347.22;5109215;28;20050;-59
2022/06/19 08:35:23;;;;;;;4.13;1.30;;;;;;;23.63;40.46;101296.69;5090601;28;19908;-59
2022/06/19 08:37:50;;;;;;;5.03;1.40;;;;;;;23.59;40.77;101238.38;5108843;28;20031;-59
2022/06/19 08:40:38;;;;;;;3.67;1.15;;;;;;;23.63;40.61;101151.97;5090305;28;20028;-60
2022/06/19 08:43:14;;;;;;;4.18;1.42;;;;;;;23.62;40.90;101123.16;5108017;28;20043;-60
2022/06/19 08:45:53;;;;;;;5.00;1.70;;;;;;;23.62;40.98;101151.16;5090436;28;20032;-60
2022/06/19 08:48:26;;;;;;;5.47;1.73;;;;;;;23.62;40.82;101158.44;5108833;28;20021;-60
2022/06/19 08:51:00;;;;;;;4.45;1.58;;;;;;;23.55;40.78;101136.66;5090378;28;20036;-60
2022/06/19 08:53:37;;;;;;;3.97;1.13;;;;;;;23.60;40.79;101149.66;5108309;28;20027;-60
2022/06/19 08:56:12;;;;;;;3.92;1.27;;;;;;;23.61;40.88;101140.47;5108515;28;20028;-58
2022/06/19 08:58:56;;;;;;;4.47;1.50;;;;;;;23.61;40.97;101135.88;5090159;28;20020;-59
2022/06/19 09:01:24;;;;;;;5.57;1.52;;;;;;;23.61;41.09;101130.44;5108391;28;20055;-60
2022/06/19 09:06:45;;;;;;;4.70;1.40;;;;;;;23.62;41.53;101186.44;5108334;28;20616;-60
2022/06/19 09:09:20;;;;;;;3.13;1.50;;;;;;;23.64;41.34;101226.94;5107383;28;20058;-61
2022/06/19 09:12:05;;;;;;;6.57;1.85;;;;;;;23.65;41.37;101224.06;5106228;28;20463;-60
2022/06/19 09:14:30;;;;;;;4.10;1.48;;;;;;;23.66;41.59;101227.63;5109742;28;20035;-60
2022/06/19 09:17:14;;;;;;;4.88;1.40;;;;;;;23.67;41.46;101213.03;5125268;28;20020;-60
2022/06/19 09:19:52;;;;;;;4.85;1.50;;;;;;;23.68;41.46;101201.13;5089885;28;20027;-60
2022/06/19 09:22:33;;;;;;;6.63;2.20;;;;;;;23.68;41.51;101201.97;5090145;28;20427;-59
2022/06/19 09:25:08;;;;;;;8.57;1.90;;;;;;;23.67;41.64;101199.47;5108427;28;20028;-60
2022/06/19 09:27:44;;;;;;;3.92;1.55;;;;;;;23.67;41.53;101196.75;5108091;28;20012;-61
2022/06/19 09:30:14;;;;;;;6.10;2.03;;;;;;;23.67;41.87;101199.47;5089363;28;20146;-60
2022/06/19 09:32:53;;;;;;;4.07;1.30;;;;;;;23.67;41.76;101203.00;5107626;28;20020;-59
2022/06/19 09:35:24;;;;;;;5.15;1.67;;;;;;;23.67;41.82;101208.44;5089598;28;20087;-60
2022/06/19 09:38:10;;;;;;;7.50;2.17;;;;;;;23.70;41.81;101204.47;5072661;28;20051;-60
2022/06/19 09:40:41;;;;;;;4.60;1.25;;;;;;;23.67;42.07;101167.72;5089393;28;20027;-60
2022/06/19 09:43:27;;;;;;;6.60;1.55;;;;;;;23.71;41.81;101129.34;5088873;28;20102;-60
2022/06/19 09:46:06;;;;;;;4.05;1.33;;;;;;;23.73;41.85;101094.66;5107109;28;20047;-60
2022/06/19 09:49:06;;;;;;;4.78;1.30;;;;;;;23.74;42.09;101109.91;5123716;28;20038;-61
2022/06/19 09:51:47;;;;;;;3.90;1.15;;;;;;;23.75;41.83;101147.75;5116245;28;20047;-60
2022/06/19 09:54:29;;;;;;;6.78;1.63;;;;;;;23.75;42.23;101145.03;5107035;28;20034;-60
2022/06/19 09:57:00;;;;;;;6.10;1.67;;;;;;;23.76;42.21;101127.69;5088926;28;20024;-60
2022/06/19 09:59:35;;;;;;;5.25;1.73;;;;;;;23.79;42.04;101130.03;5088671;28;20024;-60
2022/06/19 10:02:09;;;;;;;4.47;1.52;;;;;;;23.81;42.30;101106.22;5107196;28;20050;-60
2022/06/19 10:04:39;;;;;;;5.68;1.52;;;;;;;23.83;42.60;101092.44;5089020;28;20058;-60
2022/06/19 10:07:09;;;;;;;3.75;1.17;;;;;;;23.84;42.78;101097.69;5088908;28;20028;-60
2022/06/19 10:09:56;;;;;;;5.28;2.08;;;;;;;23.87;42.69;101091.00;5088978;28;20039;-60
2022/06/19 10:12:28;;;;;;;4.25;1.30;;;;;;;23.87;42.96;101094.59;5106389;28;20080;-60
2022/06/19 10:14:59;;;;;;;5.35;1.73;;;;;;;23.89;43.08;101092.50;5106248;28;20087;-60
2022/06/19 10:17:36;;;;;;;4.22;1.67;;;;;;;23.91;42.82;101098.56;5089027;28;20020;-60
2022/06/19 10:20:16;;;;;;;5.90;1.50;;;;;;;23.92;42.99;101108.41;5088684;28;20024;-60
2022/06/19 10:23:07;;;;;;;4.93;1.75;;;;;;;23.94;42.90;101122.63;5118110;28;20034;-60
2022/06/19 10:25:46;;;;;;;4.60;1.70;;;;;;;23.96;42.74;101149.59;5127163;28;20020;-60
2022/06/19 10:28:33;;;;;;;5.68;1.67;;;;;;;23.96;42.80;101155.03;5108858;28;20053;-60
2022/06/19 10:31:22;;;;;;;4.95;1.65;;;;;;;23.97;42.72;101154.00;5109320;28;20621;-60
2022/06/19 10:34:00;;;;;;;5.40;1.73;;;;;;;23.93;42.85;101164.41;5108757;28;20045;-60
2022/06/19 10:36:50;;;;;;;4.90;1.60;;;;;;;23.89;43.12;101152.25;5126943;28;20043;-60
2022/06/19 10:39:22;;;;;;;5.63;1.63;;;;;;;23.92;42.99;101159.19;5126874;28;20027;-60
2022/06/19 10:42:04;;;;;;;5.82;1.55;;;;;;;24.00;42.91;101185.34;5108130;28;20040;-60
2022/06/19 10:44:51;;;;;;;6.63;1.40;;;;;;;24.00;42.99;101172.63;5126192;28;20045;-60
2022/06/19 10:47:33;;;;;;;9.38;2.90;;;;;;;23.99;43.03;101175.50;5118589;28;20076;-60
2022/06/19 10:50:45;;;;;;;6.57;1.92;;;;;;;23.97;43.01;101186.59;5088322;28;20024;-60
2022/06/19 10:53:26;;;;;;;5.10;1.55;;;;;;;23.87;43.10;101167.91;5087767;28;20107;-60
2022/06/19 10:56:09;;;;;;;4.30;1.63;;;;;;;23.92;43.06;101179.03;5088064;28;20070;-60
2022/06/19 10:58:35;;;;;;;6.97;1.98;;;;;;;23.90;43.20;101182.97;5087656;28;20028;-59
2022/06/19 11:01:04;;;;;;;4.28;1.38;;;;;;;23.90;43.42;101182.97;5087737;28;20034;-60
2022/06/19 11:06:40;;;;;;;4.22;1.52;;;;;;;23.89;43.35;101184.00;5105883;28;20035;-60
2022/06/19 11:09:09;;;;;;;4.50;1.52;;;;;;;23.86;43.22;101177.06;5088101;28;20072;-60
2022/06/19 11:11:35;;;;;;;;;;;;;;;23.84;43.42;101162.88;5102719;28;20537;-60
2022/06/19 11:14:10;;;;;;;5.18;0.95;;;;;;;23.84;43.14;101164.75;5107637;28;19907;-60
2022/06/19 11:16:58;;;;;;;5.03;1.92;;;;;;;23.83;43.32;101168.47;5126093;28;20034;-60
2022/06/19 11:19:45;;;;;;;4.78;1.50;;;;;;;23.80;43.31;101169.72;5126150;28;20605;-60
2022/06/19 11:22:38;;;;;;;4.63;1.40;;;;;;;23.78;43.24;101152.75;5126357;28;20031;-60
2022/06/19 11:25:18;;;;;;;6.03;1.58;;;;;;;23.76;43.24;101175.72;5108241;28;20047;-60
2022/06/19 11:27:57;;;;;;;6.25;1.95;;;;;;;23.74;43.28;101192.19;5125953;28;20026;-60
2022/06/19 11:30:36;;;;;;;;;;;;;;;23.73;43.15;101195.13;5107818;28;20020;-60
2022/06/19 11:33:05;;;;;;;6.78;1.70;;;;;;;23.71;43.39;101194.50;5095324;28;19912;-60
2022/06/19 11:35:50;;;;;;;5.82;1.50;;;;;;;23.71;43.26;101208.91;5105489;28;20038;-60
2022/06/19 11:38:17;;;;;;;7.35;2.55;;;;;;;23.70;43.24;101199.03;5087179;28;20024;-60
2022/06/19 11:40:48;;;;;;;7.78;2.15;;;;;;;23.70;43.23;101190.91;5087487;28;20087;-57
2022/06/19 11:43:43;;;;;;;4.03;1.25;;;;;;;23.71;43.40;101179.03;5087203;28;20069;-60
2022/06/19 11:46:19;;;;;;;6.85;2.00;;;;;;;23.70;42.98;101163.75;5087893;28;20043;-60